Metaline, Washington
Current Conditions -  °F | °C
As of 7:00 AM on Friday 19 Dec 2014 (Local Time) from CYCG Reporting Station
Light Snow Light Snow  
Wind Chill: 32°   Ceiling: 1500
Heat Index: 32°   Visibility: 5mi
Dew Point: 32°   Wind: 2mph
Humidity: 100%   Direction: 150°SSE
Pressure: 29.88"   Gusts: NA
Location:  48.85°N, 117.39°W
Report Text: CYCG 191500Z 15002KT 5SM -SNRA BR FEW004 BKN015 OVC020 00/00 A2988 RMK ST2SC4SC2 SLP136
Loading
Personal Weather Stations






























Interactive Weather Map New forecast layout! Learn more

10-Day Weather Forecast

Advertisements
Track Severe Weather on mobile